createdAt,value
2023-05-05T00:00:47.426Z,240.85
2023-05-05T00:01:47.476Z,242.30
2023-05-05T00:02:47.563Z,243.65
2023-05-05T00:03:47.678Z,243.40
2023-05-05T00:04:47.566Z,241.09
2023-05-05T00:05:47.657Z,235.87
2023-05-05T00:06:47.660Z,232.34
2023-05-05T00:07:47.693Z,228.87
2023-05-05T00:08:47.717Z,227.46
2023-05-05T00:09:47.703Z,227.12
2023-05-05T00:10:47.760Z,225.12
2023-05-05T00:11:47.790Z,226.24
2023-05-05T00:12:47.831Z,224.21
2023-05-05T00:13:47.833Z,224.14
2023-05-05T00:14:47.899Z,220.57
2023-05-05T00:15:47.913Z,217.37
2023-05-05T00:16:48.003Z,216.96
2023-05-05T00:17:47.995Z,219.45
2023-05-05T00:18:47.973Z,219.70
2023-05-05T00:19:47.981Z,219.33
2023-05-05T00:20:48.041Z,219.38
2023-05-05T00:21:48.037Z,217.03
2023-05-05T00:22:48.100Z,219.11
2023-05-05T00:23:48.261Z,218.63
2023-05-05T00:24:48.231Z,219.59
2023-05-05T00:25:48.278Z,220.06
2023-05-05T00:26:48.292Z,223.20
2023-05-05T00:27:48.314Z,229.94
2023-05-05T00:28:48.305Z,232.01
2023-05-05T00:29:48.300Z,229.22
2023-05-05T00:30:48.345Z,227.41
2023-05-05T00:31:48.335Z,229.40
2023-05-05T00:32:48.466Z,232.42
2023-05-05T00:33:48.429Z,238.50
2023-05-05T00:34:48.447Z,240.50
2023-05-05T00:35:48.450Z,241.98
2023-05-05T00:36:48.514Z,242.39
2023-05-05T00:37:48.510Z,240.86
2023-05-05T00:38:48.532Z,240.66
2023-05-05T00:39:48.574Z,235.55
2023-05-05T00:40:48.584Z,233.44
2023-05-05T00:41:48.597Z,233.96
2023-05-05T00:42:48.642Z,231.10
2023-05-05T00:43:48.651Z,232.31
2023-05-05T00:44:48.666Z,236.87
2023-05-05T00:45:48.728Z,237.74
2023-05-05T00:46:48.771Z,237.65
2023-05-05T00:47:48.821Z,239.81
2023-05-05T00:48:48.845Z,240.16
2023-05-05T00:49:48.853Z,236.71
2023-05-05T00:50:48.913Z,235.63
2023-05-05T00:51:48.927Z,240.08
2023-05-05T00:52:48.937Z,236.72
2023-05-05T00:53:49.017Z,235.95
2023-05-05T00:54:49.004Z,237.39
2023-05-05T00:55:49.045Z,239.02
2023-05-05T00:56:49.102Z,240.17
2023-05-05T00:57:49.167Z,240.60
2023-05-05T00:58:49.236Z,239.23
2023-05-05T00:59:49.232Z,240.90
2023-05-05T01:00:49.285Z,242.84
2023-05-05T01:01:49.399Z,241.85
2023-05-05T01:02:49.510Z,239.87
2023-05-05T01:03:49.570Z,242.43
2023-05-05T01:04:49.481Z,240.95
2023-05-05T01:05:49.527Z,240.91
2023-05-05T01:06:49.576Z,242.86
2023-05-05T01:07:49.502Z,243.95
2023-05-05T01:08:49.541Z,244.76
2023-05-05T01:09:53.430Z,245.45
2023-05-05T01:10:50.570Z,244.46
2023-05-05T01:11:49.510Z,245.68
2023-05-05T01:12:49.558Z,244.59
2023-05-05T01:13:49.539Z,242.05
2023-05-05T01:14:49.546Z,243.11
2023-05-05T01:15:49.501Z,241.06
2023-05-05T01:16:49.491Z,239.53
2023-05-05T01:17:49.504Z,239.45
2023-05-05T01:18:49.475Z,239.32
2023-05-05T01:19:49.952Z,236.82
2023-05-05T01:20:49.460Z,233.91
2023-05-05T01:21:49.453Z,231.25
2023-05-05T01:22:49.428Z,234.41
2023-05-05T01:23:49.438Z,237.80
2023-05-05T01:24:49.439Z,236.27
2023-05-05T01:25:49.461Z,233.54
2023-05-05T01:26:49.415Z,232.75
2023-05-05T01:27:49.431Z,232.50
2023-05-05T01:28:49.474Z,235.78
2023-05-05T01:29:49.476Z,232.42
2023-05-05T01:30:49.521Z,232.03
2023-05-05T01:31:49.623Z,230.89
2023-05-05T01:32:49.664Z,231.81
2023-05-05T01:33:49.589Z,232.87
2023-05-05T01:34:49.649Z,230.64
2023-05-05T01:35:49.681Z,230.63
2023-05-05T01:36:49.701Z,232.97
2023-05-05T01:37:49.733Z,233.51
2023-05-05T01:38:49.810Z,232.38
2023-05-05T01:39:49.794Z,232.17
2023-05-05T01:40:49.816Z,233.90
2023-05-05T01:41:49.845Z,233.92
2023-05-05T01:42:49.874Z,235.17
2023-05-05T01:43:52.133Z,236.78
2023-05-05T01:44:49.958Z,235.94
2023-05-05T01:45:50.089Z,235.21
2023-05-05T01:46:50.070Z,233.39
2023-05-05T01:47:50.171Z,232.29
2023-05-05T01:48:50.149Z,230.66
2023-05-05T01:49:50.195Z,235.20
2023-05-05T01:50:50.200Z,234.34
2023-05-05T01:51:50.223Z,235.18
2023-05-05T01:52:50.263Z,238.88
2023-05-05T01:53:50.259Z,243.77
2023-05-05T01:54:50.580Z,237.31
2023-05-05T01:55:50.296Z,235.69
2023-05-05T01:56:50.273Z,235.29
2023-05-05T01:57:50.351Z,229.40
2023-05-05T01:58:50.364Z,230.47
2023-05-05T01:59:50.399Z,232.10
2023-05-05T02:00:50.422Z,231.28
2023-05-05T02:01:50.453Z,233.70
2023-05-05T02:02:50.537Z,232.86
2023-05-05T02:03:50.496Z,232.46
2023-05-05T02:04:50.514Z,233.35
2023-05-05T02:05:50.547Z,231.93
2023-05-05T02:06:50.556Z,232.43
2023-05-05T02:07:50.615Z,232.03
2023-05-05T02:08:50.625Z,234.65
2023-05-05T02:09:50.679Z,236.31
2023-05-05T02:10:50.685Z,236.50
2023-05-05T02:11:50.702Z,239.46
2023-05-05T02:12:50.786Z,237.84
2023-05-05T02:13:50.791Z,237.54
2023-05-05T02:14:50.812Z,237.62
2023-05-05T02:15:50.843Z,238.86
2023-05-05T02:16:50.828Z,240.68
2023-05-05T02:17:50.908Z,243.39
2023-05-05T02:18:50.894Z,243.37
2023-05-05T02:19:50.950Z,243.73
2023-05-05T02:20:50.979Z,243.33
2023-05-05T02:21:51.019Z,242.34
2023-05-05T02:22:51.039Z,244.86
2023-05-05T02:23:51.082Z,247.28
2023-05-05T02:24:51.083Z,244.61
2023-05-05T02:25:51.158Z,244.36
2023-05-05T02:26:51.233Z,246.27
2023-05-05T02:28:55.715Z,25.00
2023-05-05T02:29:55.737Z,25.00
2023-05-05T02:30:55.781Z,25.00
2023-05-05T02:31:55.685Z,25.00
2023-05-05T02:32:55.749Z,25.00
2023-05-05T02:33:55.724Z,39.72
2023-05-05T02:34:55.679Z,35.74
2023-05-05T02:35:55.698Z,31.24
2023-05-05T02:36:55.673Z,5.59
2023-05-05T02:37:55.642Z,40.13
2023-05-05T02:38:55.641Z,89.89
2023-05-05T02:39:55.654Z,122.20
2023-05-05T02:40:55.658Z,105.34
2023-05-05T02:41:55.672Z,104.31
2023-05-05T02:42:55.638Z,110.74
2023-05-05T02:43:55.649Z,101.83
2023-05-05T02:44:55.618Z,110.87
2023-05-05T02:45:55.635Z,91.95
2023-05-05T02:46:55.674Z,77.60
2023-05-05T02:47:55.619Z,81.82
2023-05-05T02:48:55.568Z,90.90
2023-05-05T02:49:55.614Z,79.90
2023-05-05T02:50:55.577Z,71.32
2023-05-05T02:51:55.589Z,60.06
2023-05-05T02:52:55.546Z,49.79
2023-05-05T02:53:55.535Z,44.95
2023-05-05T02:54:55.546Z,24.84
2023-05-05T02:55:56.004Z,37.23
2023-05-05T02:56:55.522Z,64.81
2023-05-05T02:57:55.519Z,42.36
2023-05-05T02:58:55.522Z,57.24
2023-05-05T02:59:55.534Z,76.24
2023-05-05T03:00:55.496Z,91.40
2023-05-05T03:01:55.587Z,45.83
2023-05-05T03:02:55.505Z,25.56
2023-05-05T03:03:55.675Z,29.58
2023-05-05T03:04:55.469Z,40.27
2023-05-05T03:05:55.486Z,58.71
2023-05-05T03:06:55.492Z,63.43
2023-05-05T03:07:55.488Z,70.73
2023-05-05T03:08:55.439Z,83.24
2023-05-05T03:09:55.439Z,67.47
2023-05-05T03:10:55.433Z,61.22
2023-05-05T03:11:55.436Z,39.91
2023-05-05T03:12:55.438Z,25.00
2023-05-05T03:13:55.434Z,50.36
2023-05-05T03:14:55.430Z,51.53
2023-05-05T03:15:55.424Z,25.00
2023-05-05T03:16:55.414Z,44.06
2023-05-05T03:17:55.417Z,5.97
2023-05-05T03:18:55.374Z,32.28
2023-05-05T03:19:55.337Z,36.52
2023-05-05T03:20:55.351Z,48.87
2023-05-05T03:21:55.384Z,54.91
2023-05-05T03:22:55.318Z,83.03
2023-05-05T03:23:55.327Z,107.56
2023-05-05T03:24:55.309Z,135.44
2023-05-05T03:25:55.356Z,128.86
2023-05-05T03:26:55.322Z,85.55
2023-05-05T03:27:55.328Z,78.85
2023-05-05T03:28:55.285Z,105.56
2023-05-05T03:29:55.288Z,41.98
2023-05-05T03:30:55.268Z,56.91
2023-05-05T03:31:55.264Z,90.19
2023-05-05T03:32:55.406Z,106.99
2023-05-05T03:33:55.366Z,133.52
2023-05-05T03:34:55.396Z,101.49
2023-05-05T03:35:55.371Z,105.15
2023-05-05T03:36:55.422Z,93.15
2023-05-05T03:37:55.424Z,120.22
2023-05-05T03:38:55.425Z,130.18
2023-05-05T03:39:55.478Z,145.95
2023-05-05T03:40:55.499Z,157.71
2023-05-05T03:41:55.547Z,187.78
2023-05-05T03:42:55.595Z,198.64
2023-05-05T03:43:55.632Z,214.93
2023-05-05T03:44:55.652Z,217.79
2023-05-05T03:45:55.686Z,231.16
2023-05-05T03:46:55.703Z,224.39
2023-05-05T03:47:55.725Z,190.26
2023-05-05T03:48:55.709Z,179.70
2023-05-05T03:49:55.756Z,194.14
2023-05-05T03:50:57.414Z,189.07
2023-05-05T03:51:55.802Z,206.17
2023-05-05T03:52:55.882Z,194.12
2023-05-05T03:53:55.964Z,201.08
2023-05-05T03:54:55.920Z,198.56
2023-05-05T03:55:56.030Z,192.05
2023-05-05T03:56:56.021Z,202.51
2023-05-05T03:57:56.035Z,199.26
2023-05-05T03:58:56.088Z,220.76
2023-05-05T03:59:56.094Z,207.22
2023-05-05T04:00:56.100Z,185.62
2023-05-05T04:01:56.147Z,146.48
2023-05-05T04:02:56.248Z,154.09
2023-05-05T04:03:56.313Z,154.71
2023-05-05T04:04:56.220Z,152.93
2023-05-05T04:05:56.297Z,157.18
2023-05-05T04:06:56.324Z,154.39
2023-05-05T04:07:56.359Z,133.77
2023-05-05T04:08:56.410Z,144.91
2023-05-05T04:09:56.424Z,141.09
2023-05-05T04:10:56.471Z,154.78
2023-05-05T04:11:56.480Z,172.38
2023-05-05T04:12:56.675Z,171.56
2023-05-05T04:13:56.570Z,176.71
2023-05-05T04:14:56.633Z,177.28
2023-05-05T04:15:56.693Z,168.56
2023-05-05T04:16:56.670Z,168.85
2023-05-05T04:17:56.784Z,193.34
2023-05-05T04:18:56.779Z,183.07
2023-05-05T04:19:56.729Z,181.04
2023-05-05T04:20:56.749Z,177.32
2023-05-05T04:21:56.775Z,173.84
2023-05-05T04:22:56.817Z,156.05
2023-05-05T04:23:56.817Z,152.95
2023-05-05T04:24:56.855Z,178.71
2023-05-05T04:25:56.945Z,194.13
2023-05-05T04:26:56.930Z,190.60
2023-05-05T04:27:56.957Z,199.79
2023-05-05T04:28:57.023Z,188.11
2023-05-05T04:29:57.012Z,196.89
2023-05-05T04:30:57.099Z,206.68
2023-05-05T04:31:57.140Z,193.66
2023-05-05T04:32:57.164Z,196.23
2023-05-05T04:33:57.157Z,178.68
2023-05-05T04:34:57.147Z,159.19
2023-05-05T04:35:57.248Z,137.81
2023-05-05T04:36:57.261Z,132.59
2023-05-05T04:37:57.297Z,130.94
2023-05-05T04:38:57.415Z,127.49
2023-05-05T04:39:57.389Z,132.63
2023-05-05T04:40:57.474Z,105.14
2023-05-05T04:41:57.460Z,91.31
2023-05-05T04:42:57.495Z,80.86
2023-05-05T04:43:57.517Z,68.50
2023-05-05T04:44:57.500Z,57.29
2023-05-05T04:45:57.603Z,67.84
2023-05-05T04:46:57.731Z,117.87
2023-05-05T04:47:57.605Z,104.68
2023-05-05T04:48:57.610Z,102.50
2023-05-05T04:49:57.666Z,114.98
2023-05-05T04:50:57.671Z,143.61
2023-05-05T04:51:57.703Z,177.12
2023-05-05T04:52:57.734Z,198.83
2023-05-05T04:53:57.753Z,211.01
2023-05-05T04:54:57.796Z,212.04
2023-05-05T04:55:57.858Z,208.41
2023-05-05T04:56:57.878Z,203.06
2023-05-05T04:57:57.942Z,216.23
2023-05-05T04:58:57.977Z,178.93
2023-05-05T04:59:58.035Z,162.63
2023-05-05T05:00:58.100Z,157.89
2023-05-05T05:01:58.161Z,183.32
2023-05-05T05:02:58.279Z,207.57
2023-05-05T05:03:58.187Z,212.85
2023-05-05T05:04:58.224Z,211.05
2023-05-05T05:05:58.300Z,212.56
2023-05-05T05:06:59.300Z,170.07
2023-05-05T05:07:58.341Z,199.02
2023-05-05T05:08:58.321Z,209.02
2023-05-05T05:09:58.364Z,197.05
2023-05-05T05:10:58.425Z,182.91
2023-05-05T05:11:58.558Z,199.49
2023-05-05T05:12:58.484Z,197.84
2023-05-05T05:13:58.571Z,210.72
2023-05-05T05:14:58.588Z,210.30
2023-05-05T05:15:58.753Z,219.23
2023-05-05T05:16:58.677Z,233.38
2023-05-05T05:17:58.737Z,225.47
2023-05-05T05:19:00.245Z,230.69
2023-05-05T05:19:58.704Z,247.55
2023-05-05T05:20:58.707Z,250.22
2023-05-05T05:21:58.723Z,249.47
2023-05-05T05:22:58.654Z,243.06
2023-05-05T05:23:58.719Z,234.65
2023-05-05T05:24:58.719Z,229.70
2023-05-05T05:25:58.673Z,237.37
2023-05-05T05:26:58.739Z,246.03
2023-05-05T05:28:09.454Z,238.13
2023-05-05T05:28:59.648Z,237.99
2023-05-05T05:29:58.631Z,229.90
2023-05-05T05:30:58.610Z,226.43
2023-05-05T05:31:58.661Z,236.29
2023-05-05T05:32:58.660Z,221.26
2023-05-05T05:33:58.584Z,218.22
2023-05-05T05:34:58.598Z,209.56
2023-05-05T05:35:58.606Z,203.72
2023-05-05T05:36:58.609Z,198.94
2023-05-05T05:37:58.565Z,194.40
2023-05-05T05:38:58.573Z,210.12
2023-05-05T05:39:58.574Z,196.95
2023-05-05T05:40:58.581Z,193.28
2023-05-05T05:41:58.584Z,192.53
2023-05-05T05:42:58.516Z,198.08
2023-05-05T05:43:58.520Z,160.70
2023-05-05T05:44:58.550Z,165.10
2023-05-05T05:45:58.611Z,155.49
2023-05-05T05:46:58.582Z,162.19
2023-05-05T05:47:58.674Z,172.85
2023-05-05T05:48:58.705Z,147.44
2023-05-05T05:49:58.744Z,154.16
2023-05-05T05:50:58.796Z,179.37
2023-05-05T05:51:58.897Z,105.78
2023-05-05T05:52:58.758Z,117.32
2023-05-05T05:53:58.954Z,110.17
2023-05-05T05:54:58.818Z,36.77
2023-05-05T05:55:58.905Z,44.74
2023-05-05T05:56:58.979Z,97.03
2023-05-05T05:57:58.948Z,83.80
2023-05-05T05:58:59.015Z,27.81
2023-05-05T06:00:01.616Z,41.58
2023-05-05T06:00:59.129Z,73.74
2023-05-05T06:01:59.088Z,13.94
2023-05-05T06:02:59.111Z,6.69
2023-05-05T06:03:59.124Z,0.00
2023-05-05T06:04:59.010Z,28.85
2023-05-05T06:05:59.068Z,52.05
2023-05-05T06:06:59.012Z,74.21
2023-05-05T06:07:59.011Z,56.51
2023-05-05T06:08:59.067Z,47.78
2023-05-05T06:10:01.393Z,25.12
2023-05-05T06:11:00.008Z,25.63
2023-05-05T06:11:59.047Z,32.41
2023-05-05T06:12:59.050Z,4.58
2023-05-05T06:13:59.000Z,0.00
2023-05-05T06:14:58.950Z,1.22
2023-05-05T06:15:59.478Z,19.84
2023-05-05T06:16:58.970Z,52.90
2023-05-05T06:17:58.968Z,42.73
2023-05-05T06:18:58.926Z,61.00
2023-05-05T06:19:58.931Z,57.11
2023-05-05T06:20:58.905Z,24.88
2023-05-05T06:21:58.957Z,30.64
2023-05-05T06:22:58.956Z,76.53
2023-05-05T06:23:58.966Z,77.74
2023-05-05T06:24:59.035Z,76.90
2023-05-05T06:25:59.815Z,85.05
2023-05-05T06:27:00.716Z,106.44
2023-05-05T06:27:59.278Z,44.72
2023-05-05T06:28:59.260Z,100.33
2023-05-05T06:29:59.187Z,101.19
2023-05-05T06:30:59.563Z,63.63
2023-05-05T06:31:59.365Z,84.27
2023-05-05T06:32:59.441Z,74.58
2023-05-05T06:33:59.369Z,71.71
2023-05-05T06:34:59.464Z,92.84
2023-05-05T06:35:59.394Z,108.17
2023-05-05T06:36:59.461Z,90.24
2023-05-05T06:37:59.468Z,46.49
2023-05-05T06:38:59.400Z,103.12
2023-05-05T06:39:59.461Z,128.91
2023-05-05T06:40:59.653Z,134.91
2023-05-05T06:41:59.531Z,114.33
2023-05-05T06:42:59.552Z,129.88
2023-05-05T06:43:59.582Z,182.89
2023-05-05T06:44:59.734Z,259.51
2023-05-05T06:45:59.737Z,271.50
2023-05-05T06:46:59.918Z,241.79
2023-05-05T06:47:59.709Z,238.40
2023-05-05T06:48:59.701Z,184.92
2023-05-05T06:49:59.792Z,171.56
2023-05-05T06:50:59.778Z,227.91
2023-05-05T06:51:59.873Z,260.18
2023-05-05T06:52:59.846Z,200.71
2023-05-05T06:53:59.844Z,250.00
2023-05-05T06:54:59.901Z,239.69
2023-05-05T06:55:59.896Z,349.48
2023-05-05T06:56:59.990Z,201.34
2023-05-05T06:58:00.049Z,198.81
2023-05-05T06:59:00.023Z,333.70
2023-05-05T07:00:00.127Z,352.18
2023-05-05T07:01:00.203Z,245.67
2023-05-05T07:02:00.179Z,263.93
2023-05-05T07:03:00.316Z,203.52
2023-05-05T07:04:00.230Z,235.13
2023-05-05T07:05:00.188Z,205.00
2023-05-05T07:06:00.241Z,155.96
2023-05-05T07:07:00.441Z,130.69
2023-05-05T07:08:00.387Z,143.78
2023-05-05T07:09:00.369Z,257.61
2023-05-05T07:10:00.382Z,193.25
2023-05-05T07:11:00.443Z,181.08
2023-05-05T07:12:00.485Z,166.13
2023-05-05T07:13:00.505Z,187.72
2023-05-05T07:14:00.496Z,119.75
2023-05-05T07:15:03.218Z,157.71
2023-05-05T07:16:01.492Z,158.61
2023-05-05T07:17:00.601Z,156.92
2023-05-05T07:18:00.636Z,159.24
2023-05-05T07:19:00.484Z,203.07
2023-05-05T07:20:00.518Z,214.17
2023-05-05T07:21:00.475Z,180.61
2023-05-05T07:22:00.511Z,200.20
2023-05-05T07:23:00.516Z,260.37
2023-05-05T07:24:00.724Z,264.57
2023-05-05T07:25:00.465Z,188.09
2023-05-05T07:26:00.424Z,116.16
2023-05-05T07:27:00.478Z,120.67
2023-05-05T07:28:00.414Z,147.08
2023-05-05T07:29:00.430Z,201.61
2023-05-05T07:30:00.497Z,226.83
2023-05-05T07:31:00.512Z,225.92
2023-05-05T07:32:00.553Z,211.90
2023-05-05T07:33:00.604Z,209.72
2023-05-05T07:34:00.594Z,195.29
2023-05-05T07:35:00.633Z,218.47
2023-05-05T07:36:00.682Z,228.57
2023-05-05T07:37:00.927Z,214.22
2023-05-05T07:38:00.670Z,269.35
2023-05-05T07:39:00.692Z,168.67
2023-05-05T07:40:00.762Z,246.09
2023-05-05T07:41:00.754Z,235.79
2023-05-05T07:42:00.924Z,243.39
2023-05-05T07:43:00.833Z,251.08
2023-05-05T07:44:00.793Z,267.83
2023-05-05T07:45:00.813Z,249.63
2023-05-05T07:46:00.844Z,154.53
2023-05-05T07:47:00.947Z,97.12
2023-05-05T07:48:00.953Z,68.48
2023-05-05T07:49:00.960Z,108.32
2023-05-05T07:50:00.941Z,74.64
2023-05-05T07:51:00.972Z,88.75
2023-05-05T07:52:01.441Z,143.18
2023-05-05T07:53:10.762Z,72.47
2023-05-05T07:54:02.001Z,74.72
2023-05-05T07:55:01.002Z,81.39
2023-05-05T07:56:01.088Z,97.23
2023-05-05T07:57:00.992Z,75.58
2023-05-05T07:58:01.004Z,36.31
2023-05-05T07:59:00.970Z,43.99
2023-05-05T08:00:01.069Z,164.85
2023-05-05T08:01:00.967Z,114.92
2023-05-05T08:02:00.975Z,151.10
2023-05-05T08:03:01.072Z,14.92
2023-05-05T08:04:00.968Z,0.00
2023-05-05T08:05:00.955Z,79.59
2023-05-05T08:06:00.888Z,113.66
2023-05-05T08:07:00.977Z,144.40
2023-05-05T08:08:00.906Z,157.42
2023-05-05T08:09:00.948Z,108.54
2023-05-05T08:10:00.930Z,184.08
2023-05-05T08:11:00.952Z,126.18
2023-05-05T08:12:01.076Z,62.32
2023-05-05T08:13:01.062Z,84.96
2023-05-05T08:14:01.060Z,162.62
2023-05-05T08:15:01.131Z,50.28
2023-05-05T08:16:01.288Z,22.53
2023-05-05T08:17:01.238Z,48.33
2023-05-05T08:18:01.205Z,119.67
2023-05-05T08:19:01.273Z,93.16
2023-05-05T08:20:01.279Z,107.57
2023-05-05T08:21:01.271Z,69.66
2023-05-05T08:22:01.680Z,127.58
2023-05-05T08:23:01.357Z,227.85
2023-05-05T08:24:01.455Z,209.69
2023-05-05T08:25:01.397Z,197.04
2023-05-05T08:26:01.448Z,216.67
2023-05-05T08:27:01.463Z,53.93
2023-05-05T08:28:01.571Z,103.28
2023-05-05T08:29:01.529Z,245.13
2023-05-05T08:30:01.769Z,216.08
2023-05-05T08:31:01.648Z,189.74
2023-05-05T08:32:02.024Z,234.38
2023-05-05T08:33:01.722Z,274.88
2023-05-05T08:34:01.672Z,185.58
2023-05-05T08:35:01.716Z,164.43
2023-05-05T08:36:01.726Z,193.39
2023-05-05T08:37:01.763Z,46.16
2023-05-05T08:38:01.988Z,31.46
2023-05-05T08:39:01.839Z,0.00
2023-05-05T08:40:01.845Z,0.00
2023-05-05T08:41:01.859Z,100.54
2023-05-05T08:42:09.954Z,177.50
2023-05-05T08:43:01.885Z,153.92
2023-05-05T08:44:01.946Z,162.13
2023-05-05T08:45:01.879Z,148.52
2023-05-05T08:46:01.856Z,143.34
2023-05-05T08:47:01.997Z,186.88
2023-05-05T08:48:01.927Z,140.39
2023-05-05T08:49:01.973Z,47.65
2023-05-05T08:50:01.916Z,120.68
2023-05-05T08:51:03.994Z,60.24
2023-05-05T08:52:01.821Z,130.63
2023-05-05T08:53:01.846Z,20.23
2023-05-05T08:54:01.792Z,43.52
2023-05-05T08:55:01.853Z,96.28
2023-05-05T08:56:01.820Z,49.30
2023-05-05T08:57:01.843Z,14.97
2023-05-05T08:58:01.832Z,1.10
2023-05-05T08:59:01.789Z,14.48
2023-05-05T09:00:01.856Z,0.00
2023-05-05T09:01:01.845Z,0.00
2023-05-05T09:02:01.831Z,31.45
2023-05-05T09:03:01.897Z,0.00
2023-05-05T09:04:01.767Z,0.00
2023-05-05T09:05:01.754Z,29.33
2023-05-05T09:06:01.715Z,28.04
2023-05-05T09:07:01.738Z,56.46
2023-05-05T09:08:01.750Z,116.93
2023-05-05T09:09:01.706Z,56.36
2023-05-05T09:10:01.702Z,31.71
2023-05-05T09:11:01.700Z,25.36
2023-05-05T09:12:01.707Z,22.24
2023-05-05T09:13:01.737Z,14.48
2023-05-05T09:14:01.713Z,28.97
2023-05-05T09:15:01.705Z,38.94
2023-05-05T09:16:01.709Z,63.08
2023-05-05T09:17:01.745Z,32.98
2023-05-05T09:18:01.725Z,35.55
2023-05-05T09:19:01.653Z,42.87
2023-05-05T09:20:01.646Z,133.76
2023-05-05T09:21:01.634Z,135.77
2023-05-05T09:22:01.652Z,61.05
2023-05-05T09:23:01.759Z,17.10
2023-05-05T09:24:07.777Z,22.00
2023-05-05T09:25:02.663Z,20.98
2023-05-05T09:26:01.659Z,0.00
2023-05-05T09:27:01.641Z,0.00
2023-05-05T09:28:01.981Z,0.00
2023-05-05T09:29:01.663Z,0.00
2023-05-05T09:31:09.294Z,0.52
2023-05-05T09:32:01.612Z,0.20
2023-05-05T09:33:01.650Z,2.02
2023-05-05T09:34:01.556Z,4.12
2023-05-05T09:35:01.619Z,6.83
2023-05-05T09:36:01.584Z,41.51
2023-05-05T09:37:01.543Z,53.34
2023-05-05T09:38:01.537Z,29.92
2023-05-05T09:39:01.546Z,31.70
2023-05-05T09:40:01.561Z,27.20
2023-05-05T09:41:01.544Z,35.84
2023-05-05T09:42:01.566Z,25.88
2023-05-05T09:43:02.223Z,19.73
2023-05-05T09:44:01.605Z,21.68
2023-05-05T09:45:01.548Z,36.30
2023-05-05T09:46:01.551Z,39.23
2023-05-05T09:47:01.593Z,34.96
2023-05-05T09:48:01.606Z,38.83
2023-05-05T09:49:01.508Z,36.35
2023-05-05T09:50:01.526Z,41.09
2023-05-05T09:51:01.508Z,33.54
2023-05-05T09:52:01.599Z,38.11
2023-05-05T09:53:01.576Z,24.21
2023-05-05T09:54:01.641Z,43.47
2023-05-05T09:55:01.637Z,43.93
2023-05-05T09:56:01.659Z,19.96
2023-05-05T09:57:01.657Z,12.55
2023-05-05T09:58:02.075Z,41.41
2023-05-05T09:59:01.684Z,17.22
2023-05-05T10:00:01.797Z,14.83
2023-05-05T10:01:01.766Z,11.83
2023-05-05T10:02:01.860Z,15.36
2023-05-05T10:03:01.929Z,15.42
2023-05-05T10:04:01.795Z,20.71
2023-05-05T10:05:02.539Z,14.53
2023-05-05T10:06:01.822Z,9.24
2023-05-05T10:07:01.774Z,0.53
2023-05-05T10:08:02.037Z,0.00
2023-05-05T10:09:01.787Z,0.00
2023-05-05T10:10:01.764Z,25.65
2023-05-05T10:11:01.718Z,24.60
2023-05-05T10:12:01.760Z,28.66
2023-05-05T10:13:01.780Z,0.00
2023-05-05T10:14:01.754Z,1.10
2023-05-05T10:15:01.763Z,0.00
2023-05-05T10:16:01.796Z,0.00
2023-05-05T10:17:01.772Z,12.98
2023-05-05T10:18:07.707Z,14.86
2023-05-05T10:19:02.813Z,5.93
2023-05-05T10:20:02.196Z,11.50
2023-05-05T10:21:01.805Z,15.35
2023-05-05T10:22:01.810Z,20.20
2023-05-05T10:23:01.792Z,12.52
2023-05-05T10:24:01.782Z,13.09
2023-05-05T10:25:01.784Z,20.09
2023-05-05T10:26:01.795Z,25.31
2023-05-05T10:27:01.726Z,28.81
2023-05-05T10:28:01.758Z,31.88
2023-05-05T10:29:01.771Z,26.05
2023-05-05T10:30:01.767Z,35.09
2023-05-05T10:31:02.159Z,27.51
2023-05-05T10:32:02.691Z,18.23
2023-05-05T10:33:22.226Z,13.05
2023-05-05T10:34:02.908Z,12.83
2023-05-05T10:35:01.832Z,19.58
2023-05-05T10:36:01.765Z,24.88
2023-05-05T10:37:02.607Z,24.83
2023-05-05T10:38:01.780Z,26.24
2023-05-05T10:39:01.715Z,23.77
2023-05-05T10:40:01.785Z,26.32
2023-05-05T10:41:01.657Z,31.86
2023-05-05T10:42:01.674Z,20.57
2023-05-05T10:43:01.657Z,14.22
2023-05-05T10:44:04.306Z,9.07
2023-05-05T10:45:01.672Z,13.75
2023-05-05T10:46:01.709Z,15.78
2023-05-05T10:47:01.639Z,12.00
2023-05-05T10:48:01.809Z,15.11
2023-05-05T10:49:01.726Z,31.10
2023-05-05T10:50:01.648Z,27.42
2023-05-05T10:51:01.694Z,27.82
2023-05-05T10:52:01.641Z,21.55
2023-05-05T10:53:01.624Z,25.39
2023-05-05T10:54:01.645Z,28.89
2023-05-05T10:55:01.588Z,42.77
2023-05-05T10:56:01.608Z,38.52
2023-05-05T10:57:01.560Z,37.17
2023-05-05T10:58:01.616Z,33.83
2023-05-05T10:59:01.571Z,34.96
2023-05-05T11:00:01.577Z,34.69
2023-05-05T11:01:01.617Z,23.19
2023-05-05T11:02:01.592Z,35.30
2023-05-05T11:03:01.599Z,36.87
2023-05-05T11:04:01.575Z,40.61
2023-05-05T11:05:01.548Z,50.82
2023-05-05T11:06:01.611Z,33.60
2023-05-05T11:07:01.523Z,53.77
2023-05-05T11:08:01.507Z,48.29
2023-05-05T11:09:01.523Z,40.69
2023-05-05T11:10:01.786Z,36.36
2023-05-05T11:11:01.508Z,45.27
2023-05-05T11:12:01.453Z,38.05
2023-05-05T11:13:01.546Z,21.06
2023-05-05T11:14:01.475Z,24.97
2023-05-05T11:15:01.458Z,22.82
2023-05-05T11:16:01.413Z,21.27
2023-05-05T11:17:01.510Z,26.50
2023-05-05T11:18:03.927Z,23.91
2023-05-05T11:19:01.453Z,23.98
2023-05-05T11:20:01.407Z,21.13
2023-05-05T11:21:01.411Z,27.25
2023-05-05T11:22:01.417Z,26.71
2023-05-05T11:23:01.414Z,35.99
2023-05-05T11:24:01.373Z,25.00
2023-05-05T11:25:01.339Z,23.67
2023-05-05T11:26:01.348Z,22.76
2023-05-05T11:27:01.333Z,22.40
2023-05-05T11:28:01.562Z,20.97
2023-05-05T11:29:01.502Z,20.43
2023-05-05T11:30:01.346Z,25.53
2023-05-05T11:31:01.749Z,31.05
2023-05-05T11:32:01.381Z,30.81
2023-05-05T11:33:01.652Z,29.61
2023-05-05T11:34:01.381Z,25.66
2023-05-05T11:35:01.396Z,40.43
2023-05-05T11:36:03.419Z,40.94
2023-05-05T11:37:01.324Z,41.56
2023-05-05T11:38:01.603Z,42.25
2023-05-05T11:39:01.333Z,42.77
2023-05-05T11:40:01.385Z,43.02
2023-05-05T11:41:01.270Z,44.09
2023-05-05T11:42:05.380Z,55.71
2023-05-05T11:43:02.603Z,56.19
2023-05-05T11:44:01.242Z,57.21
2023-05-05T11:45:01.245Z,58.82
2023-05-05T11:46:01.220Z,59.28
2023-05-05T11:47:01.244Z,78.57
2023-05-05T11:48:01.242Z,75.57
2023-05-05T11:49:01.239Z,52.02
2023-05-05T11:50:01.210Z,62.66
2023-05-05T11:51:02.359Z,51.46
2023-05-05T11:52:01.189Z,51.64
2023-05-05T11:53:01.168Z,40.44
2023-05-05T11:54:01.175Z,39.20
2023-05-05T11:55:01.192Z,34.05
2023-05-05T11:56:01.203Z,27.74
2023-05-05T11:57:01.167Z,29.05
2023-05-05T11:58:01.205Z,25.34
2023-05-05T11:59:01.261Z,29.58
2023-05-05T12:00:01.293Z,27.22
2023-05-05T12:01:01.316Z,34.78
2023-05-05T12:02:01.332Z,22.65
2023-05-05T12:03:01.483Z,26.38
2023-05-05T12:04:01.986Z,21.97
2023-05-05T12:05:01.428Z,20.03
2023-05-05T12:06:01.449Z,25.06
2023-05-05T12:07:01.463Z,20.03
2023-05-05T12:08:01.478Z,17.55
2023-05-05T12:09:01.532Z,21.13
2023-05-05T12:10:01.717Z,26.35
2023-05-05T12:11:01.616Z,30.05
2023-05-05T12:12:01.604Z,47.33
2023-05-05T12:13:01.624Z,43.28
2023-05-05T12:14:01.643Z,33.26
2023-05-05T12:15:01.656Z,30.51
2023-05-05T12:16:01.689Z,25.35
2023-05-05T12:17:01.722Z,42.27
2023-05-05T12:18:03.191Z,39.88
2023-05-05T12:19:01.790Z,42.63
2023-05-05T12:20:01.872Z,38.26
2023-05-05T12:21:01.922Z,40.91
2023-05-05T12:22:01.911Z,37.89
2023-05-05T12:23:01.952Z,33.32
2023-05-05T12:24:01.958Z,28.10
2023-05-05T12:25:01.930Z,24.32
2023-05-05T12:26:01.937Z,24.93
2023-05-05T12:27:02.084Z,32.15
2023-05-05T12:28:02.005Z,26.50
2023-05-05T12:29:02.066Z,36.32
2023-05-05T12:30:02.148Z,25.17
2023-05-05T12:31:02.156Z,30.06
2023-05-05T12:32:02.171Z,22.59
2023-05-05T12:33:02.180Z,28.66
2023-05-05T12:34:02.168Z,32.18
2023-05-05T12:35:02.223Z,29.81
2023-05-05T12:36:02.231Z,37.21
2023-05-05T12:37:02.242Z,35.33
2023-05-05T12:38:02.286Z,33.63
2023-05-05T12:39:02.362Z,48.19
2023-05-05T12:40:02.355Z,37.84
2023-05-05T12:41:02.380Z,40.60
2023-05-05T12:42:02.425Z,41.15
2023-05-05T12:43:02.400Z,48.43